Zim Luanda — 9HA2029 — position and weather

sailwx.info

Track history (hours):
 
Tides and Currents Weather Stations Pressure Air Temp Water Temp Dewpoint Dewpoint Depression Visibility Wind Speed Wind Dir Waves Ship Positions

Zim Luanda

Last reported at 2014-Sep-25 03:20 UTC. Time now 2014-Oct-02 00:22 UTC.
Position N 40°25' W 068°60'.

Length 260 m; draft 11.9 m.

Type: Ship (hazmat cat A). MMSI: 249830000.

Date/timePositionNaut miles runAvg speedWind from/ knotsBaromVisibWave heightAir tempDewpointWater temp
2014-Sep-25 03:20N 40°25' W 068°60'1112.1
2014-Sep-25 02:25N 40°26' W 069°15'1012.1
2014-Sep-25 01:33N 40°26' W 069°28'1312.0
2014-Sep-25 00:31N 40°26' W 069°45'1111.9
2014-Sep-24 23:33N 40°26' W 069°60'1111.4
2014-Sep-24 22:33N 40°26' W 070°15'1111.5
2014-Sep-24 21:33N 40°25' W 070°29'1211.8
2014-Sep-24 20:33N 40°25' W 070°45'1211.8
2014-Sep-24 19:31N 40°25' W 071°01'1111.8
2014-Sep-24 18:33N 40°24' W 071°16'1211.9
2014-Sep-24 17:33N 40°24' W 071°32'1212.0
2014-Sep-24 16:33N 40°24' W 071°47'1212.1
2014-Sep-24 15:33N 40°23' W 072°03'1211.9
2014-Sep-24 14:33N 40°23' W 072°19'1212.1
2014-Sep-24 13:33N 40°23' W 072°35'1211.9
2014-Sep-24 12:30N 40°22' W 072°51'1112.0
2014-Sep-24 11:33N 40°22' W 073°06'1211.9
2014-Sep-24 10:33N 40°24' W 073°22'1212.1
2014-Sep-24 09:33N 40°25' W 073°37'1211.8
2014-Sep-24 08:33N 40°28' W 073°52'1413.9
2014-Sep-24 07:33N 40°39' W 074°04'4 3.9
2014-Sep-24 06:33N 40°41' W 074°09'0 0.2
2014-Sep-24 04:29N 40°41' W 074°09'0 0.0
2014-Sep-24 03:23N 40°41' W 074°09'0 0.0
2014-Sep-24 02:32N 40°41' W 074°09'0 0.0
2014-Sep-24 01:29N 40°41' W 074°09'0 0.0
2014-Sep-24 00:26N 40°41' W 074°09'0 0.0
2014-Sep-23 23:32N 40°41' W 074°09'0 0.0
2014-Sep-23 22:26N 40°41' W 074°09'0 0.0
2014-Sep-23 21:29N 40°41' W 074°09'0 0.0
2014-Sep-23 20:32N 40°41' W 074°09'0 0.0
2014-Sep-23 19:32N 40°41' W 074°09'0 0.0
2014-Sep-23 18:32N 40°41' W 074°09'0 0.0
2014-Sep-23 17:17N 40°41' W 074°09'0 0.0
2014-Sep-23 15:32N 40°41' W 074°09'0 0.0
2014-Sep-23 14:26N 40°41' W 074°09'0 0.0
2014-Sep-23 13:29N 40°41' W 074°09'0 0.0
2014-Sep-23 12:32N 40°41' W 074°09'0 0.0
2014-Sep-23 11:20N 40°41' W 074°09'0 0.0
2014-Sep-23 10:32N 40°41' W 074°09'2 1.5
2014-Sep-23 09:33N 40°39' W 074°09'5 5.0
2014-Sep-23 08:34N 40°37' W 074°03'10 9.5
2014-Sep-23 07:33N 40°30' W 073°55'8 8.3
2014-Sep-23 06:33N 40°24' W 073°47'9 9.5
2014-Sep-23 05:33N 40°15' W 073°46'1111.2
2014-Sep-23 04:33N 40°04' W 073°44'1111.5
2014-Sep-23 03:34N 39°52' W 073°43'1111.3
2014-Sep-23 02:33N 39°41' W 073°43'  
Track history (hours):
 
Tides and Currents Weather Stations Pressure Air Temp Water Temp Dewpoint Dewpoint Depression Visibility Wind Speed Wind Dir Waves Ship Positions

Zim Luanda

Last reported at 2014-Sep-25 03:20 UTC. Time now 2014-Oct-02 00:22 UTC.
Position N 40°25' W 068°60'.

Length 260 m; draft 11.9 m.

Type: Ship (hazmat cat A). MMSI: 249830000.

Date/timePositionNaut miles runAvg speedWind from/ knotsBaromVisibWave heightAir tempDewpointWater temp
2014-Sep-25 03:20N 40°25' W 068°60'1112.1
2014-Sep-25 02:25N 40°26' W 069°15'1012.1
2014-Sep-25 01:33N 40°26' W 069°28'1312.0
2014-Sep-25 00:31N 40°26' W 069°45'1111.9
2014-Sep-24 23:33N 40°26' W 069°60'1111.4
2014-Sep-24 22:33N 40°26' W 070°15'1111.5
2014-Sep-24 21:33N 40°25' W 070°29'1211.8
2014-Sep-24 20:33N 40°25' W 070°45'1211.8
2014-Sep-24 19:31N 40°25' W 071°01'1111.8
2014-Sep-24 18:33N 40°24' W 071°16'1211.9
2014-Sep-24 17:33N 40°24' W 071°32'1212.0
2014-Sep-24 16:33N 40°24' W 071°47'1212.1
2014-Sep-24 15:33N 40°23' W 072°03'1211.9
2014-Sep-24 14:33N 40°23' W 072°19'1212.1
2014-Sep-24 13:33N 40°23' W 072°35'1211.9
2014-Sep-24 12:30N 40°22' W 072°51'1112.0
2014-Sep-24 11:33N 40°22' W 073°06'1211.9
2014-Sep-24 10:33N 40°24' W 073°22'1212.1
2014-Sep-24 09:33N 40°25' W 073°37'1211.8
2014-Sep-24 08:33N 40°28' W 073°52'1413.9
2014-Sep-24 07:33N 40°39' W 074°04'4 3.9
2014-Sep-24 06:33N 40°41' W 074°09'0 0.2
2014-Sep-24 04:29N 40°41' W 074°09'0 0.0
2014-Sep-24 03:23N 40°41' W 074°09'0 0.0
2014-Sep-24 02:32N 40°41' W 074°09'0 0.0
2014-Sep-24 01:29N 40°41' W 074°09'0 0.0
2014-Sep-24 00:26N 40°41' W 074°09'0 0.0
2014-Sep-23 23:32N 40°41' W 074°09'0 0.0
2014-Sep-23 22:26N 40°41' W 074°09'0 0.0
2014-Sep-23 21:29N 40°41' W 074°09'0 0.0
2014-Sep-23 20:32N 40°41' W 074°09'0 0.0
2014-Sep-23 19:32N 40°41' W 074°09'0 0.0
2014-Sep-23 18:32N 40°41' W 074°09'0 0.0
2014-Sep-23 17:17N 40°41' W 074°09'0 0.0
2014-Sep-23 15:32N 40°41' W 074°09'0 0.0
2014-Sep-23 14:26N 40°41' W 074°09'0 0.0
2014-Sep-23 13:29N 40°41' W 074°09'0 0.0
2014-Sep-23 12:32N 40°41' W 074°09'0 0.0
2014-Sep-23 11:20N 40°41' W 074°09'0 0.0
2014-Sep-23 10:32N 40°41' W 074°09'2 1.5
2014-Sep-23 09:33N 40°39' W 074°09'5 5.0
2014-Sep-23 08:34N 40°37' W 074°03'10 9.5
2014-Sep-23 07:33N 40°30' W 073°55'8 8.3
2014-Sep-23 06:33N 40°24' W 073°47'9 9.5
2014-Sep-23 05:33N 40°15' W 073°46'1111.2
2014-Sep-23 04:33N 40°04' W 073°44'1111.5
2014-Sep-23 03:34N 39°52' W 073°43'1111.3
2014-Sep-23 02:33N 39°41' W 073°43'  

Dump ship's entire track history